createdAt,value
2023-04-22T00:00:12.771Z,0
2023-04-22T00:01:18.904Z,0
2023-04-22T00:02:25.045Z,0
2023-04-22T00:03:31.193Z,0
2023-04-22T00:04:36.359Z,0
2023-04-22T00:05:41.526Z,0
2023-04-22T00:06:47.671Z,0
2023-04-22T00:07:53.816Z,0
2023-04-22T00:08:59.961Z,0
2023-04-22T00:10:06.102Z,0
2023-04-22T00:11:12.264Z,0
2023-04-22T00:12:18.384Z,0
2023-04-22T00:14:30.672Z,0
2023-04-22T00:15:36.804Z,0
2023-04-22T00:16:42.954Z,0
2023-04-22T00:17:49.097Z,0
2023-04-22T00:18:55.238Z,0
2023-04-22T00:20:00.394Z,0
2023-04-22T00:21:06.543Z,0
2023-04-22T00:22:12.690Z,0
2023-04-22T00:23:18.836Z,0
2023-04-22T00:24:24.977Z,0
2023-04-22T00:25:31.116Z,0
2023-04-22T00:26:37.264Z,0
2023-04-22T00:27:43.403Z,0
2023-04-22T00:28:48.576Z,0
2023-04-22T00:30:59.905Z,0
2023-04-22T00:32:06.019Z,0
2023-04-22T00:33:12.163Z,0
2023-04-22T00:34:18.310Z,0
2023-04-22T00:36:30.600Z,0
2023-04-22T00:37:36.765Z,0
2023-04-22T00:38:42.937Z,0
2023-04-22T00:39:49.036Z,0
2023-04-22T00:40:55.179Z,0
2023-04-22T00:45:19.750Z,0
2023-04-22T00:47:31.067Z,0
2023-04-22T00:48:36.231Z,0
2023-04-22T00:49:41.373Z,0
2023-04-22T00:50:47.536Z,0
2023-04-22T00:51:53.661Z,0
2023-04-22T00:52:59.813Z,0
2023-04-22T00:54:06.009Z,0
2023-04-22T00:55:12.140Z,0
2023-04-22T00:56:18.236Z,0
2023-04-22T00:58:30.533Z,0
2023-04-22T00:59:36.669Z,0
2023-04-22T01:00:42.810Z,0
2023-04-22T01:01:48.969Z,0
2023-04-22T01:04:01.251Z,0
2023-04-22T01:05:07.399Z,0
2023-04-22T01:06:13.530Z,0
2023-04-22T01:07:19.793Z,0
2023-04-22T01:08:25.951Z,0
2023-04-22T01:09:32.184Z,0
2023-04-22T01:10:38.231Z,0
2023-04-22T01:11:44.374Z,0
2023-04-22T01:12:50.508Z,0
2023-04-22T01:13:56.684Z,0
2023-04-22T01:15:02.814Z,0
2023-04-22T01:16:08.943Z,0
2023-04-22T01:17:15.082Z,0
2023-04-22T01:18:21.239Z,0
2023-04-22T01:20:33.521Z,0
2023-04-22T01:22:44.829Z,0
2023-04-22T01:23:50.959Z,0
2023-04-22T01:24:57.107Z,0
2023-04-22T01:26:03.280Z,0
2023-04-22T01:27:09.411Z,0
2023-04-22T01:28:15.546Z,0
2023-04-22T01:29:21.683Z,0
2023-04-22T01:30:27.897Z,0
2023-04-22T01:31:33.966Z,0
2023-04-22T01:32:40.127Z,0
2023-04-22T01:33:46.262Z,0
2023-04-22T01:34:52.433Z,0
2023-04-22T01:37:03.707Z,0
2023-04-22T01:38:09.850Z,0
2023-04-22T01:39:15.999Z,0
2023-04-22T01:40:22.132Z,0
2023-04-22T01:41:28.287Z,0
2023-04-22T01:42:34.417Z,0
2023-04-22T01:43:40.562Z,0
2023-04-22T01:44:46.717Z,0
2023-04-22T01:45:51.875Z,0
2023-04-22T01:46:57.036Z,0
2023-04-22T01:48:03.196Z,0
2023-04-22T01:49:09.324Z,0
2023-04-22T01:50:15.505Z,0
2023-04-22T01:51:21.662Z,0
2023-04-22T01:53:33.899Z,0
2023-04-22T01:54:40.037Z,0
2023-04-22T01:55:46.195Z,0
2023-04-22T01:57:58.463Z,0
2023-04-22T01:59:04.619Z,0
2023-04-22T02:01:16.917Z,0
2023-04-22T02:02:23.189Z,0
2023-04-22T02:03:28.346Z,0
2023-04-22T02:05:40.640Z,0
2023-04-22T02:06:46.821Z,0
2023-04-22T02:07:52.934Z,0
2023-04-22T02:10:05.209Z,0
2023-04-22T02:11:11.354Z,0
2023-04-22T02:12:17.509Z,0
2023-04-22T02:13:23.655Z,0
2023-04-22T02:14:29.807Z,0
2023-04-22T02:15:35.933Z,0
2023-04-22T02:16:42.079Z,0
2023-04-22T02:17:47.227Z,0
2023-04-22T02:18:53.370Z,0
2023-04-22T02:21:05.673Z,0
2023-04-22T02:22:11.816Z,0
2023-04-22T02:23:17.944Z,0
2023-04-22T02:24:24.087Z,0
2023-04-22T02:27:42.530Z,0
2023-04-22T02:28:47.681Z,0
2023-04-22T02:29:53.827Z,0
2023-04-22T02:30:59.978Z,0
2023-04-22T02:32:06.109Z,0
2023-04-22T02:33:12.262Z,0
2023-04-22T02:34:18.396Z,0
2023-04-22T02:35:24.541Z,0
2023-04-22T02:36:30.690Z,0
2023-04-22T02:37:36.831Z,0
2023-04-22T02:38:42.976Z,0
2023-04-22T02:39:49.115Z,0
2023-04-22T02:40:55.260Z,0
2023-04-22T02:43:07.561Z,0
2023-04-22T02:44:12.716Z,0
2023-04-22T02:45:18.851Z,0
2023-04-22T02:46:25.000Z,0
2023-04-22T02:47:31.141Z,0
2023-04-22T02:48:37.281Z,0
2023-04-22T02:49:43.427Z,0
2023-04-22T02:53:01.860Z,0
2023-04-22T02:54:08.008Z,0
2023-04-22T02:55:14.162Z,0
2023-04-22T02:56:20.286Z,0
2023-04-22T02:57:26.438Z,0
2023-04-22T02:59:38.714Z,0
2023-04-22T03:00:43.879Z,0
2023-04-22T03:01:50.030Z,0
2023-04-22T03:02:56.216Z,0
2023-04-22T03:04:02.309Z,0
2023-04-22T03:05:08.485Z,0
2023-04-22T03:06:14.595Z,0
2023-04-22T03:07:20.745Z,0
2023-04-22T03:08:26.886Z,0
2023-04-22T03:09:33.137Z,0
2023-04-22T03:10:39.204Z,0
2023-04-22T03:11:45.307Z,0
2023-04-22T03:12:51.468Z,0
2023-04-22T03:16:09.915Z,0
2023-04-22T03:17:15.052Z,0
2023-04-22T03:18:21.188Z,0
2023-04-22T03:19:27.339Z,0
2023-04-22T03:20:33.482Z,0
2023-04-22T03:21:39.647Z,0
2023-04-22T03:22:45.772Z,0
2023-04-22T03:23:51.908Z,0
2023-04-22T03:24:58.054Z,0
2023-04-22T03:26:04.205Z,0
2023-04-22T03:27:10.337Z,0
2023-04-22T03:28:16.482Z,0
2023-04-22T03:29:22.658Z,0
2023-04-22T03:30:28.770Z,0
2023-04-22T03:32:41.182Z,0
2023-04-22T03:33:47.318Z,0
2023-04-22T03:35:59.610Z,0
2023-04-22T03:37:05.747Z,0
2023-04-22T03:38:11.902Z,0
2023-04-22T03:39:18.053Z,0
2023-04-22T03:40:24.184Z,0
2023-04-22T03:41:30.323Z,0
2023-04-22T03:42:36.468Z,0
2023-04-22T03:43:42.643Z,0
2023-04-22T03:44:48.827Z,0
2023-04-22T03:45:53.928Z,0
2023-04-22T03:47:00.062Z,0
2023-04-22T03:49:12.346Z,0
2023-04-22T03:50:18.499Z,0
2023-04-22T03:51:24.633Z,0
2023-04-22T03:52:30.787Z,0
2023-04-22T03:53:36.926Z,0
2023-04-22T03:54:43.061Z,0
2023-04-22T03:56:55.352Z,0
2023-04-22T03:58:01.493Z,0
2023-04-22T03:59:07.642Z,0
2023-04-22T04:00:13.913Z,4
2023-04-22T04:01:20.043Z,4
2023-04-22T04:02:26.192Z,0
2023-04-22T04:03:32.331Z,4
2023-04-22T04:05:44.628Z,4
2023-04-22T04:06:50.776Z,8
2023-04-22T04:07:56.932Z,4
2023-04-22T04:09:03.077Z,8
2023-04-22T04:10:09.205Z,8
2023-04-22T04:11:15.331Z,12
2023-04-22T04:12:21.475Z,12
2023-04-22T04:13:27.621Z,16
2023-04-22T04:14:32.815Z,16
2023-04-22T04:15:38.931Z,24
2023-04-22T04:16:45.070Z,28
2023-04-22T04:17:51.215Z,28
2023-04-22T04:18:57.360Z,36
2023-04-22T04:20:02.592Z,40
2023-04-22T04:22:13.828Z,52
2023-04-22T04:23:19.991Z,60
2023-04-22T04:24:26.133Z,68
2023-04-22T04:25:32.290Z,76
2023-04-22T04:26:38.413Z,84
2023-04-22T04:27:44.554Z,92
2023-04-22T04:28:50.706Z,104
2023-04-22T04:29:56.836Z,116
2023-04-22T04:31:02.976Z,128
2023-04-22T04:32:09.127Z,140
2023-04-22T04:34:20.436Z,176
2023-04-22T04:36:31.793Z,208
2023-04-22T04:39:49.223Z,252
2023-04-22T04:40:54.392Z,272
2023-04-22T04:41:59.524Z,288
2023-04-22T04:43:05.715Z,308
2023-04-22T04:44:11.824Z,324
2023-04-22T04:45:17.958Z,344
2023-04-22T04:46:24.126Z,364
2023-04-22T04:47:30.235Z,380
2023-04-22T04:48:36.395Z,400
2023-04-22T04:49:42.537Z,420
2023-04-22T04:50:48.678Z,436
2023-04-22T04:55:13.257Z,528
2023-04-22T04:56:18.420Z,552
2023-04-22T04:57:24.556Z,572
2023-04-22T04:58:30.752Z,596
2023-04-22T04:59:36.837Z,620
2023-04-22T05:00:42.981Z,640
2023-04-22T05:01:49.123Z,660
2023-04-22T05:02:55.283Z,668
2023-04-22T05:04:01.425Z,680
2023-04-22T05:05:07.567Z,688
2023-04-22T05:06:13.710Z,692
2023-04-22T05:07:19.854Z,696
2023-04-22T05:08:25.997Z,676
2023-04-22T05:15:02.916Z,764
2023-04-22T05:17:14.252Z,800
2023-04-22T05:18:20.375Z,820
2023-04-22T05:19:26.640Z,852
2023-04-22T05:20:32.600Z,888
2023-04-22T05:22:44.883Z,968
2023-04-22T05:23:51.070Z,1024
2023-04-22T05:24:57.165Z,1088
2023-04-22T05:26:03.307Z,1160
2023-04-22T05:28:15.607Z,1320
2023-04-22T05:29:21.739Z,1416
2023-04-22T05:30:26.903Z,1512
2023-04-22T05:31:33.042Z,1608
2023-04-22T05:32:39.205Z,1704
2023-04-22T05:33:45.424Z,1796
2023-04-22T05:34:51.467Z,1880
2023-04-22T05:35:57.621Z,1960
2023-04-22T05:37:03.758Z,2028
2023-04-22T05:38:09.898Z,2096
2023-04-22T05:39:16.060Z,2140
2023-04-22T05:40:22.195Z,2128
2023-04-22T05:41:28.337Z,2132
2023-04-22T05:42:34.482Z,2128
2023-04-22T05:44:46.802Z,2096
2023-04-22T05:45:51.924Z,2060
2023-04-22T05:46:58.123Z,2048
2023-04-22T05:48:04.236Z,2052
2023-04-22T05:50:16.502Z,2048
2023-04-22T05:51:22.633Z,2044
2023-04-22T05:52:28.786Z,2040
2023-04-22T05:53:34.926Z,2036
2023-04-22T05:55:47.219Z,2016
2023-04-22T05:56:53.358Z,2020
2023-04-22T05:57:59.502Z,2040
2023-04-22T05:59:05.640Z,2068
2023-04-22T06:01:16.949Z,2132
2023-04-22T06:03:29.237Z,2188
2023-04-22T06:06:47.672Z,2316
2023-04-22T06:07:53.920Z,2344
2023-04-22T06:09:00.173Z,2352
2023-04-22T06:10:05.305Z,2336
2023-04-22T06:11:11.573Z,2360
2023-04-22T06:12:17.720Z,2416
2023-04-22T06:13:23.767Z,2504
2023-04-22T06:14:29.985Z,2640
2023-04-22T06:15:36.099Z,2772
2023-04-22T06:17:48.303Z,3136
2023-04-22T06:22:13.018Z,3884
2023-04-22T06:23:19.082Z,4172
2023-04-22T06:24:24.302Z,4232
2023-04-22T06:25:30.409Z,4360
2023-04-22T06:27:42.705Z,3784
2023-04-22T06:28:48.849Z,4572
2023-04-22T06:29:55.003Z,5304
2023-04-22T06:31:01.192Z,5816
2023-04-22T06:32:07.104Z,6384
2023-04-22T06:34:19.539Z,6384
2023-04-22T06:35:25.636Z,6196
2023-04-22T06:36:31.690Z,5860
2023-04-22T06:37:37.830Z,5704
2023-04-22T06:38:42.985Z,5336
2023-04-22T06:39:49.324Z,5472
2023-04-22T06:40:55.410Z,5808
2023-04-22T06:42:01.630Z,5896
2023-04-22T06:43:07.571Z,5888
2023-04-22T06:44:13.939Z,6208
2023-04-22T06:45:20.038Z,6048
2023-04-22T06:46:25.988Z,6512
2023-04-22T06:47:32.138Z,7204
2023-04-22T06:48:38.272Z,7464
2023-04-22T06:50:50.713Z,7628
2023-04-22T06:51:56.737Z,7880
2023-04-22T06:53:01.862Z,7920
2023-04-22T06:54:08.003Z,7856
2023-04-22T06:56:20.450Z,8248
2023-04-22T06:57:26.595Z,6356
2023-04-22T06:58:32.566Z,8464
2023-04-22T06:59:38.908Z,8436
2023-04-22T07:00:45.070Z,8560
2023-04-22T07:01:51.128Z,8504
2023-04-22T07:02:57.326Z,8484
2023-04-22T07:05:09.611Z,8340
2023-04-22T07:07:21.739Z,8560
2023-04-22T07:08:27.007Z,8500
2023-04-22T07:09:33.022Z,8612
2023-04-22T07:11:45.377Z,7960
2023-04-22T07:12:51.453Z,8228
2023-04-22T07:13:57.667Z,8256
2023-04-22T07:15:03.789Z,7668
2023-04-22T07:16:09.889Z,7928
2023-04-22T07:17:16.139Z,8104
2023-04-22T07:18:22.228Z,8192
2023-04-22T07:19:28.458Z,8120
2023-04-22T07:21:40.685Z,7668
2023-04-22T07:23:51.970Z,7488
2023-04-22T07:24:58.282Z,7468
2023-04-22T07:26:04.199Z,7324
2023-04-22T07:27:10.335Z,7232
2023-04-22T07:28:16.492Z,7444
2023-04-22T07:29:22.714Z,7576
2023-04-22T07:31:34.890Z,7356
2023-04-22T07:32:41.247Z,7192
2023-04-22T07:33:47.192Z,6892
2023-04-22T07:35:59.472Z,7616
2023-04-22T07:38:10.872Z,7824
2023-04-22T07:40:23.214Z,7824
2023-04-22T07:41:29.370Z,8104
2023-04-22T07:42:35.376Z,8192
2023-04-22T07:43:41.476Z,7776
2023-04-22T07:45:53.781Z,8652
2023-04-22T07:47:00.041Z,8296
2023-04-22T07:48:06.065Z,8604
2023-04-22T07:49:12.322Z,8588
2023-04-22T07:51:24.503Z,8216
2023-04-22T07:52:29.655Z,7996
2023-04-22T07:53:35.864Z,7640
2023-04-22T07:56:54.264Z,9340
2023-04-22T07:58:00.378Z,8772
2023-04-22T07:59:06.532Z,9696
2023-04-22T08:01:18.821Z,11468
2023-04-22T08:02:24.989Z,11816
2023-04-22T08:03:31.168Z,12324
2023-04-22T08:04:37.231Z,13264
2023-04-22T08:05:43.377Z,13824
2023-04-22T08:06:48.546Z,14432
2023-04-22T08:07:54.664Z,12964
2023-04-22T08:09:00.942Z,16192
2023-04-22T08:10:07.002Z,16800
2023-04-22T08:11:13.284Z,17728
2023-04-22T08:14:31.677Z,18304
2023-04-22T08:16:43.843Z,14848
2023-04-22T08:17:50.115Z,16576
2023-04-22T08:18:56.175Z,16512
2023-04-22T08:20:02.307Z,17440
2023-04-22T08:22:13.766Z,20032
2023-04-22T08:23:19.934Z,20064
2023-04-22T08:24:25.993Z,19648
2023-04-22T08:25:32.168Z,21216
2023-04-22T08:26:38.325Z,21664
2023-04-22T08:31:02.819Z,21888
2023-04-22T08:32:09.052Z,20512
2023-04-22T08:33:15.091Z,18144
2023-04-22T08:34:21.244Z,19552
2023-04-22T08:35:26.402Z,19520
2023-04-22T08:36:32.588Z,18336
2023-04-22T08:37:38.740Z,16960
2023-04-22T08:38:44.813Z,18304
2023-04-22T08:39:50.968Z,20576
2023-04-22T08:40:57.213Z,19456
2023-04-22T08:42:03.283Z,21216
2023-04-22T08:46:27.928Z,21056
2023-04-22T08:47:33.970Z,28448
2023-04-22T08:48:40.207Z,28800
2023-04-22T08:49:45.281Z,28032
2023-04-22T08:50:51.450Z,29824
2023-04-22T08:51:57.558Z,30560
2023-04-22T08:53:03.699Z,31008
2023-04-22T08:54:09.874Z,31232
2023-04-22T08:55:15.973Z,31520
2023-04-22T08:56:22.205Z,31776
2023-04-22T08:57:28.295Z,29792
2023-04-22T08:58:34.437Z,29024
2023-04-22T09:00:46.715Z,30048
2023-04-22T09:02:59.093Z,26752
2023-04-22T09:04:04.143Z,28352
2023-04-22T09:05:10.336Z,23776
2023-04-22T09:07:22.571Z,30272
2023-04-22T09:08:28.795Z,29728
2023-04-22T09:09:34.980Z,28736
2023-04-22T09:10:41.170Z,29728
2023-04-22T09:11:47.201Z,28064
2023-04-22T09:12:53.402Z,29536
2023-04-22T09:13:59.623Z,29408
2023-04-22T09:15:05.670Z,30976
2023-04-22T09:16:11.714Z,31584
2023-04-22T09:17:17.858Z,32960
2023-04-22T09:19:29.157Z,33440
2023-04-22T09:20:35.357Z,33472
2023-04-22T09:21:41.536Z,34240
2023-04-22T09:23:53.885Z,34048
2023-04-22T09:24:59.976Z,32576
2023-04-22T09:26:06.203Z,31040
2023-04-22T09:27:12.324Z,35072
2023-04-22T09:28:18.305Z,35872
2023-04-22T09:29:24.429Z,37920
2023-04-22T09:30:30.771Z,37504
2023-04-22T09:32:42.927Z,38976
2023-04-22T09:33:48.034Z,40352
2023-04-22T09:36:00.427Z,37856
2023-04-22T09:37:06.522Z,44896
2023-04-22T09:38:12.691Z,42944
2023-04-22T09:39:18.941Z,41056
2023-04-22T09:40:25.050Z,34912
2023-04-22T09:41:31.127Z,38464
2023-04-22T09:42:37.198Z,38784
2023-04-22T09:43:43.438Z,38080
2023-04-22T09:44:49.530Z,39456
2023-04-22T09:45:55.672Z,38624
2023-04-22T09:47:01.756Z,28704
2023-04-22T09:48:06.918Z,26912
2023-04-22T09:49:13.061Z,21504
2023-04-22T09:50:19.206Z,32000
2023-04-22T09:52:30.534Z,36256
2023-04-22T09:53:35.865Z,35136
2023-04-22T09:54:41.860Z,31712
2023-04-22T09:55:47.961Z,36032
2023-04-22T09:56:54.109Z,37216
2023-04-22T09:58:00.277Z,38304
2023-04-22T09:59:05.417Z,42752
2023-04-22T10:00:10.680Z,39936
2023-04-22T10:01:16.736Z,40448
2023-04-22T10:03:29.008Z,38528
2023-04-22T10:04:35.156Z,41440
2023-04-22T10:05:41.401Z,45472
2023-04-22T10:06:47.554Z,44512
2023-04-22T10:08:59.721Z,46688
2023-04-22T10:11:12.009Z,46080
2023-04-22T10:12:18.158Z,47680
2023-04-22T10:13:24.456Z,47200
2023-04-22T10:14:30.454Z,48864
2023-04-22T10:15:36.782Z,51040
2023-04-22T10:16:41.972Z,51776
2023-04-22T10:17:48.083Z,51168
2023-04-22T10:18:54.181Z,49920
2023-04-22T10:20:00.323Z,48896
2023-04-22T10:21:06.648Z,49664
2023-04-22T10:22:12.785Z,49088
2023-04-22T10:23:18.903Z,49184
2023-04-22T10:25:31.193Z,46592
2023-04-22T10:26:37.322Z,47456
2023-04-22T10:28:49.600Z,48832
2023-04-22T10:29:55.787Z,45760
2023-04-22T10:31:00.895Z,42848
2023-04-22T10:32:07.060Z,43200
2023-04-22T10:33:13.244Z,44864
2023-04-22T10:34:19.354Z,45408
2023-04-22T10:35:25.467Z,48160
2023-04-22T10:36:31.647Z,49312
2023-04-22T10:37:37.758Z,51616
2023-04-22T10:38:43.921Z,46496
2023-04-22T10:39:50.058Z,49536
2023-04-22T10:42:02.375Z,45216
2023-04-22T10:43:08.585Z,49312
2023-04-22T10:44:14.641Z,49536
2023-04-22T10:46:25.966Z,52928
2023-04-22T10:47:32.087Z,53664
2023-04-22T10:48:38.210Z,52896
2023-04-22T10:49:44.422Z,52128
2023-04-22T10:50:50.542Z,49696
2023-04-22T10:51:56.703Z,50912
2023-04-22T10:53:02.855Z,54528
2023-04-22T10:54:08.938Z,52320
2023-04-22T10:55:15.075Z,52672
2023-04-22T10:59:39.654Z,50976
2023-04-22T11:00:44.853Z,52224
2023-04-22T11:01:51.015Z,47104
2023-04-22T11:02:57.106Z,47872
2023-04-22T11:04:03.238Z,50432
2023-04-22T11:05:09.413Z,49216
2023-04-22T11:06:15.694Z,53216
2023-04-22T11:07:21.694Z,56256
2023-04-22T11:08:27.939Z,56608
2023-04-22T11:09:33.950Z,53120
2023-04-22T11:10:40.285Z,50880
2023-04-22T11:11:46.326Z,53792
2023-04-22T11:12:52.460Z,51232
2023-04-22T11:15:04.698Z,58496
2023-04-22T11:16:09.864Z,57056
2023-04-22T11:17:15.981Z,55232
2023-04-22T11:18:22.153Z,51200
2023-04-22T11:19:28.278Z,54656
2023-04-22T11:20:34.476Z,52032
2023-04-22T11:21:40.626Z,51136
2023-04-22T11:23:51.940Z,48416
2023-04-22T11:24:58.138Z,48928
2023-04-22T11:26:04.432Z,45760
2023-04-22T11:27:10.493Z,53728
2023-04-22T11:28:16.561Z,53344
2023-04-22T11:29:22.690Z,47168
2023-04-22T11:31:35.145Z,58112
2023-04-22T11:32:41.264Z,59616
2023-04-22T11:33:47.401Z,62560
2023-04-22T11:34:53.537Z,58624
2023-04-22T11:35:59.714Z,60928
2023-04-22T11:37:05.833Z,61600
2023-04-22T11:38:12.060Z,57856
2023-04-22T11:39:18.284Z,59200
2023-04-22T11:40:24.384Z,60608
2023-04-22T11:41:30.610Z,50944
2023-04-22T11:42:36.677Z,57728
2023-04-22T11:43:42.969Z,58752
2023-04-22T11:44:49.000Z,62208
2023-04-22T11:45:55.228Z,40480
2023-04-22T11:48:06.457Z,54624
2023-04-22T11:49:11.584Z,52864
2023-04-22T11:50:17.772Z,43264
2023-04-22T11:51:23.865Z,20352
2023-04-22T11:53:36.312Z,12704
2023-04-22T11:54:42.410Z,15840
2023-04-22T11:55:48.593Z,13196
2023-04-22T11:56:54.608Z,12728
2023-04-22T11:58:00.740Z,13264
2023-04-22T11:59:06.938Z,13316
2023-04-22T12:00:13.018Z,14144
2023-04-22T12:01:19.221Z,12608
2023-04-22T12:02:25.315Z,12392
2023-04-22T12:04:36.674Z,10924
2023-04-22T12:05:42.949Z,9136
2023-04-22T12:06:48.877Z,7724
2023-04-22T12:07:55.197Z,6800
2023-04-22T12:09:01.238Z,6172
2023-04-22T12:10:07.316Z,5500
2023-04-22T12:11:13.525Z,4780
2023-04-22T12:12:19.642Z,4344
2023-04-22T12:13:25.821Z,4160
2023-04-22T12:14:32.020Z,4016
2023-04-22T12:15:38.046Z,3884
2023-04-22T12:16:43.255Z,3768
2023-04-22T12:17:48.438Z,3704
2023-04-22T12:18:54.611Z,3772
2023-04-22T12:21:06.794Z,4600
2023-04-22T12:22:13.055Z,5308
2023-04-22T12:23:19.072Z,6204
2023-04-22T12:24:25.221Z,7484
2023-04-22T12:25:31.349Z,9156
2023-04-22T12:26:37.523Z,11100
2023-04-22T12:27:43.791Z,11820
2023-04-22T12:28:49.966Z,12332
2023-04-22T12:29:55.934Z,12676
2023-04-22T12:31:02.097Z,12684
2023-04-22T12:32:07.282Z,12384
2023-04-22T12:33:13.445Z,11616
2023-04-22T12:34:19.606Z,11088
2023-04-22T12:35:25.728Z,11792
2023-04-22T12:37:38.016Z,13152
2023-04-22T12:38:44.473Z,12672
2023-04-22T12:39:50.541Z,12116
2023-04-22T12:43:07.884Z,11616
2023-04-22T12:44:13.983Z,11416
2023-04-22T12:45:20.116Z,11456
2023-04-22T12:46:26.268Z,11500
2023-04-22T12:48:38.598Z,11172
2023-04-22T12:49:44.789Z,10928
2023-04-22T12:50:50.974Z,10940
2023-04-22T12:51:56.998Z,11036
2023-04-22T12:54:09.340Z,10240
2023-04-22T12:56:20.722Z,10204
2023-04-22T12:57:26.714Z,10104
2023-04-22T12:58:32.849Z,10188
2023-04-22T12:59:39.085Z,10252
2023-04-22T13:00:45.143Z,10148
2023-04-22T13:01:51.290Z,9964
2023-04-22T13:02:57.504Z,9212
2023-04-22T13:05:09.749Z,8672
2023-04-22T13:06:15.848Z,8528
2023-04-22T13:07:22.047Z,8700
2023-04-22T13:08:28.200Z,8304
2023-04-22T13:11:45.680Z,7124
2023-04-22T13:12:51.716Z,6812
2023-04-22T13:13:57.868Z,6124
2023-04-22T13:15:04.013Z,5552
2023-04-22T13:16:10.149Z,5016
2023-04-22T13:17:16.394Z,4496
2023-04-22T13:18:22.461Z,4196
2023-04-22T13:19:28.690Z,3868
2023-04-22T13:20:34.723Z,3580
2023-04-22T13:21:40.868Z,3328
2023-04-22T13:22:47.005Z,3176
2023-04-22T13:23:52.250Z,3036
2023-04-22T13:24:58.336Z,2924
2023-04-22T13:27:10.698Z,2740
2023-04-22T13:28:16.790Z,2692
2023-04-22T13:29:22.879Z,2704
2023-04-22T13:30:29.041Z,2772
2023-04-22T13:31:35.179Z,2840
2023-04-22T13:32:41.322Z,2892
2023-04-22T13:33:47.492Z,3016
2023-04-22T13:34:52.644Z,3192
2023-04-22T13:35:57.860Z,3400
2023-04-22T13:37:03.967Z,3584
2023-04-22T13:38:10.144Z,3668
2023-04-22T13:39:16.221Z,3664
2023-04-22T13:41:28.568Z,3712
2023-04-22T13:43:40.807Z,3804
2023-04-22T13:44:46.990Z,3728
2023-04-22T13:45:53.101Z,3564
2023-04-22T13:46:59.238Z,3408
2023-04-22T13:48:05.418Z,3272
2023-04-22T13:49:10.548Z,3148
2023-04-22T13:50:15.763Z,2992
2023-04-22T13:51:21.846Z,2852
2023-04-22T13:52:27.984Z,2780
2023-04-22T13:53:34.214Z,2788
2023-04-22T13:54:40.296Z,2872
2023-04-22T13:55:46.467Z,3020
2023-04-22T13:57:58.713Z,3492
2023-04-22T14:00:11.011Z,3972
2023-04-22T14:01:17.242Z,4264
2023-04-22T14:02:23.285Z,4512
2023-04-22T14:04:35.565Z,4668
2023-04-22T14:05:40.747Z,4556
2023-04-22T14:06:46.938Z,4448
2023-04-22T14:07:53.019Z,4420
2023-04-22T14:08:59.276Z,4408
2023-04-22T14:10:05.304Z,4212
2023-04-22T14:11:11.511Z,4068
2023-04-22T14:12:17.658Z,3912
2023-04-22T14:13:23.737Z,3780
2023-04-22T14:14:29.865Z,3624
2023-04-22T14:16:42.164Z,3336
2023-04-22T14:17:48.421Z,3248
2023-04-22T14:18:54.482Z,3248
2023-04-22T14:19:59.603Z,3264
2023-04-22T14:21:05.754Z,3276
2023-04-22T14:22:12.083Z,3328
2023-04-22T14:23:18.033Z,3344
2023-04-22T14:24:24.179Z,3416
2023-04-22T14:25:30.321Z,3480
2023-04-22T14:27:42.676Z,3392
2023-04-22T14:28:48.767Z,3308
2023-04-22T14:29:54.926Z,3288
2023-04-22T14:31:01.034Z,3436
2023-04-22T14:33:13.314Z,4408
2023-04-22T14:34:18.602Z,4928
2023-04-22T14:35:24.623Z,5360
2023-04-22T14:36:30.816Z,5604
2023-04-22T14:37:36.905Z,5524
2023-04-22T14:38:43.045Z,5312
2023-04-22T14:39:49.233Z,5044
2023-04-22T14:42:01.501Z,4480
2023-04-22T14:43:07.658Z,4324
2023-04-22T14:44:13.757Z,4188
2023-04-22T14:45:19.934Z,4008
2023-04-22T14:46:26.123Z,3944
2023-04-22T14:47:32.189Z,3852
2023-04-22T14:49:43.490Z,3908
2023-04-22T14:50:49.644Z,4048
2023-04-22T14:51:55.782Z,4104
2023-04-22T14:54:08.134Z,4028
2023-04-22T14:55:14.205Z,3984
2023-04-22T14:56:20.347Z,3896
2023-04-22T14:58:32.636Z,3376
2023-04-22T15:00:44.935Z,3080
2023-04-22T15:01:51.059Z,2968
2023-04-22T15:02:56.223Z,2852
2023-04-22T15:04:02.367Z,2820
2023-04-22T15:06:14.715Z,3028
2023-04-22T15:07:20.804Z,3200
2023-04-22T15:08:26.936Z,3252
2023-04-22T15:09:33.242Z,3096
2023-04-22T15:11:45.387Z,3020
2023-04-22T15:12:51.578Z,3212
2023-04-22T15:13:57.639Z,3436
2023-04-22T15:15:03.802Z,3472
2023-04-22T15:16:09.946Z,3256
2023-04-22T15:17:15.094Z,3184
2023-04-22T15:18:21.262Z,3236
2023-04-22T15:19:27.569Z,3312
2023-04-22T15:22:45.808Z,2976
2023-04-22T15:23:51.957Z,2744
2023-04-22T15:24:58.121Z,2584
2023-04-22T15:26:04.348Z,2476
2023-04-22T15:27:10.408Z,2248
2023-04-22T15:28:16.604Z,2048
2023-04-22T15:29:22.675Z,1860
2023-04-22T15:31:34.979Z,1788
2023-04-22T15:32:40.214Z,1812
2023-04-22T15:33:46.247Z,1940
2023-04-22T15:34:52.401Z,2076
2023-04-22T15:35:58.536Z,2164
2023-04-22T15:37:04.679Z,2104
2023-04-22T15:39:16.972Z,1832
2023-04-22T15:41:29.296Z,1684
2023-04-22T15:42:35.413Z,1664
2023-04-22T15:43:41.638Z,1668
2023-04-22T15:44:47.769Z,1700
2023-04-22T15:45:53.900Z,1760
2023-04-22T15:46:58.995Z,1748
2023-04-22T15:48:05.168Z,1640
2023-04-22T15:49:11.272Z,1520
2023-04-22T15:50:17.608Z,1372
2023-04-22T15:51:23.628Z,1276
2023-04-22T15:52:29.696Z,1208
2023-04-22T15:53:35.831Z,1168
2023-04-22T15:55:48.164Z,1108
2023-04-22T15:56:54.280Z,1020
2023-04-22T15:58:00.569Z,928
2023-04-22T15:59:06.637Z,880
2023-04-22T16:00:12.693Z,876
2023-04-22T16:01:17.856Z,860
2023-04-22T16:02:24.012Z,824
2023-04-22T16:03:30.201Z,780
2023-04-22T16:04:35.322Z,760
2023-04-22T16:05:40.526Z,784
2023-04-22T16:07:52.759Z,676
2023-04-22T16:10:05.059Z,688
2023-04-22T16:13:23.486Z,860
2023-04-22T16:15:35.788Z,896
2023-04-22T16:17:48.057Z,856
2023-04-22T16:18:54.192Z,824
2023-04-22T16:19:59.358Z,820
2023-04-22T16:21:05.572Z,828
2023-04-22T16:24:23.931Z,908
2023-04-22T16:25:29.102Z,940
2023-04-22T16:26:34.255Z,988
2023-04-22T16:32:04.975Z,1216
2023-04-22T16:33:11.123Z,1268
2023-04-22T16:34:17.276Z,1276
2023-04-22T16:35:23.401Z,1252
2023-04-22T16:36:29.610Z,1236
2023-04-22T16:37:35.700Z,1220
2023-04-22T16:38:41.829Z,1224
2023-04-22T16:39:47.979Z,1236
2023-04-22T16:40:54.258Z,1248
2023-04-22T16:43:06.511Z,1364
2023-04-22T16:45:18.852Z,1540
2023-04-22T16:46:24.954Z,1668
2023-04-22T16:47:31.089Z,1888
2023-04-22T16:49:43.391Z,1904
2023-04-22T16:50:49.535Z,1832
2023-04-22T16:51:55.665Z,1732
2023-04-22T16:53:01.817Z,1628
2023-04-22T16:54:07.949Z,1500
2023-04-22T16:55:14.085Z,1384
2023-04-22T16:56:20.397Z,1280
2023-04-22T16:57:26.587Z,1168
2023-04-22T16:58:32.641Z,1060
2023-04-22T16:59:38.968Z,984
2023-04-22T17:01:51.157Z,884
2023-04-22T17:02:57.207Z,808
2023-04-22T17:04:03.365Z,728
2023-04-22T17:05:09.502Z,648
2023-04-22T17:06:15.736Z,596
2023-04-22T17:07:21.819Z,576
2023-04-22T17:08:27.926Z,560
2023-04-22T17:09:34.058Z,544
2023-04-22T17:10:39.228Z,540
2023-04-22T17:11:45.382Z,548
2023-04-22T17:12:50.559Z,552
2023-04-22T17:13:55.718Z,564
2023-04-22T17:15:01.857Z,576
2023-04-22T17:16:07.112Z,588
2023-04-22T17:18:19.361Z,580
2023-04-22T17:19:25.573Z,568
2023-04-22T17:20:31.605Z,548
2023-04-22T17:21:37.817Z,532
2023-04-22T17:22:43.897Z,524
2023-04-22T17:23:50.167Z,516
2023-04-22T17:24:56.158Z,512
2023-04-22T17:26:02.368Z,512
2023-04-22T17:27:08.507Z,500
2023-04-22T17:29:20.729Z,460
2023-04-22T17:30:26.887Z,452
2023-04-22T17:31:33.365Z,452
2023-04-22T17:32:38.320Z,452
2023-04-22T17:35:56.772Z,440
2023-04-22T17:37:02.919Z,416
2023-04-22T17:38:09.100Z,388
2023-04-22T17:39:15.201Z,384
2023-04-22T17:40:21.459Z,372
2023-04-22T17:41:27.564Z,384
2023-04-22T17:42:33.609Z,392
2023-04-22T17:43:39.749Z,408
2023-04-22T17:44:45.895Z,424
2023-04-22T17:46:58.266Z,448
2023-04-22T17:49:09.468Z,420
2023-04-22T17:51:21.891Z,388
2023-04-22T17:52:28.165Z,368
2023-04-22T17:53:34.186Z,344
2023-04-22T17:54:40.445Z,320
2023-04-22T17:55:46.471Z,296
2023-04-22T17:56:52.668Z,272
2023-04-22T17:57:58.760Z,252
2023-04-22T17:59:04.959Z,232